sensor_id;sensor_type;location;lat;lon;timestamp;temperature;humidity
25024;DHT22;13033;50.936;5.334;2023-08-31T00:00:10;13.30;99.90
25024;DHT22;13033;50.936;5.334;2023-08-31T00:02:38;13.40;99.90
25024;DHT22;13033;50.936;5.334;2023-08-31T00:05:04;13.30;99.90
25024;DHT22;13033;50.936;5.334;2023-08-31T00:07:30;13.30;99.90
25024;DHT22;13033;50.936;5.334;2023-08-31T00:09:57;13.30;99.90
25024;DHT22;13033;50.936;5.334;2023-08-31T00:12:23;13.40;99.90
25024;DHT22;13033;50.936;5.334;2023-08-31T00:14:50;13.30;99.90
25024;DHT22;13033;50.936;5.334;2023-08-31T00:17:16;13.30;99.90
25024;DHT22;13033;50.936;5.334;2023-08-31T00:19:43;13.20;99.90
25024;DHT22;13033;50.936;5.334;2023-08-31T00:22:09;13.10;99.90
25024;DHT22;13033;50.936;5.334;2023-08-31T00:24:34;13.00;99.90
25024;DHT22;13033;50.936;5.334;2023-08-31T00:27:05;12.90;99.90
25024;DHT22;13033;50.936;5.334;2023-08-31T00:29:32;13.00;99.90
25024;DHT22;13033;50.936;5.334;2023-08-31T00:31:57;13.00;99.90
25024;DHT22;13033;50.936;5.334;2023-08-31T00:34:23;13.10;99.90
25024;DHT22;13033;50.936;5.334;2023-08-31T00:36:49;13.00;99.90
25024;DHT22;13033;50.936;5.334;2023-08-31T00:39:15;13.20;99.90
25024;DHT22;13033;50.936;5.334;2023-08-31T00:41:43;13.10;99.90
25024;DHT22;13033;50.936;5.334;2023-08-31T00:44:11;13.00;99.90
25024;DHT22;13033;50.936;5.334;2023-08-31T00:46:37;12.90;99.90
25024;DHT22;13033;50.936;5.334;2023-08-31T00:49:03;12.80;99.90
25024;DHT22;13033;50.936;5.334;2023-08-31T00:51:31;12.80;99.90
25024;DHT22;13033;50.936;5.334;2023-08-31T00:53:57;12.70;99.90
25024;DHT22;13033;50.936;5.334;2023-08-31T00:56:24;12.80;99.90
25024;DHT22;13033;50.936;5.334;2023-08-31T00:58:51;12.90;99.90
25024;DHT22;13033;50.936;5.334;2023-08-31T01:07:28;13.00;99.90
25024;DHT22;13033;50.936;5.334;2023-08-31T01:10:41;13.00;99.90
25024;DHT22;13033;50.936;5.334;2023-08-31T01:13:13;13.10;99.90
25024;DHT22;13033;50.936;5.334;2023-08-31T01:15:42;13.00;99.90
25024;DHT22;13033;50.936;5.334;2023-08-31T01:18:10;13.10;99.90
25024;DHT22;13033;50.936;5.334;2023-08-31T01:20:46;13.00;99.90
25024;DHT22;13033;50.936;5.334;2023-08-31T01:23:18;12.90;99.90
25024;DHT22;13033;50.936;5.334;2023-08-31T01:25:45;12.90;99.90
25024;DHT22;13033;50.936;5.334;2023-08-31T01:28:13;13.00;99.90
25024;DHT22;13033;50.936;5.334;2023-08-31T01:30:40;13.00;99.90
25024;DHT22;13033;50.936;5.334;2023-08-31T01:33:06;13.00;99.90
25024;DHT22;13033;50.936;5.334;2023-08-31T01:35:42;12.90;99.90
25024;DHT22;13033;50.936;5.334;2023-08-31T01:38:10;12.80;99.90
25024;DHT22;13033;50.936;5.334;2023-08-31T01:43:06;12.90;99.90
25024;DHT22;13033;50.936;5.334;2023-08-31T01:45:33;12.90;99.90
25024;DHT22;13033;50.936;5.334;2023-08-31T01:48:01;12.90;99.90
25024;DHT22;13033;50.936;5.334;2023-08-31T01:50:26;12.80;99.90
25024;DHT22;13033;50.936;5.334;2023-08-31T01:52:52;12.80;99.90
25024;DHT22;13033;50.936;5.334;2023-08-31T01:55:22;13.00;99.90
25024;DHT22;13033;50.936;5.334;2023-08-31T01:57:48;13.10;99.90
25024;DHT22;13033;50.936;5.334;2023-08-31T02:00:14;13.20;99.90
25024;DHT22;13033;50.936;5.334;2023-08-31T02:02:41;13.20;99.90
25024;DHT22;13033;50.936;5.334;2023-08-31T02:05:08;13.10;99.90
25024;DHT22;13033;50.936;5.334;2023-08-31T02:07:33;13.00;99.90
25024;DHT22;13033;50.936;5.334;2023-08-31T02:09:59;13.00;99.90
25024;DHT22;13033;50.936;5.334;2023-08-31T02:12:25;12.90;99.90
25024;DHT22;13033;50.936;5.334;2023-08-31T02:14:51;12.90;99.90
25024;DHT22;13033;50.936;5.334;2023-08-31T02:17:16;13.00;99.90
25024;DHT22;13033;50.936;5.334;2023-08-31T02:19:42;12.80;99.90
25024;DHT22;13033;50.936;5.334;2023-08-31T02:22:08;12.80;99.90
25024;DHT22;13033;50.936;5.334;2023-08-31T02:24:34;12.80;99.90
25024;DHT22;13033;50.936;5.334;2023-08-31T02:26:59;12.70;99.90
25024;DHT22;13033;50.936;5.334;2023-08-31T02:29:25;12.60;99.90
25024;DHT22;13033;50.936;5.334;2023-08-31T02:31:51;12.50;99.90
25024;DHT22;13033;50.936;5.334;2023-08-31T02:34:16;12.60;99.90
25024;DHT22;13033;50.936;5.334;2023-08-31T02:36:42;12.70;99.90
25024;DHT22;13033;50.936;5.334;2023-08-31T02:39:08;12.70;99.90
25024;DHT22;13033;50.936;5.334;2023-08-31T02:41:34;12.80;99.90
25024;DHT22;13033;50.936;5.334;2023-08-31T02:43:59;12.80;99.90
25024;DHT22;13033;50.936;5.334;2023-08-31T02:46:25;12.80;99.90
25024;DHT22;13033;50.936;5.334;2023-08-31T02:48:51;12.70;99.90
25024;DHT22;13033;50.936;5.334;2023-08-31T02:51:16;12.60;99.90
25024;DHT22;13033;50.936;5.334;2023-08-31T02:53:42;12.60;99.90
25024;DHT22;13033;50.936;5.334;2023-08-31T02:56:08;12.70;99.90
25024;DHT22;13033;50.936;5.334;2023-08-31T02:58:34;12.70;99.90
25024;DHT22;13033;50.936;5.334;2023-08-31T03:01:07;12.70;99.90
25024;DHT22;13033;50.936;5.334;2023-08-31T03:03:33;12.80;99.90
25024;DHT22;13033;50.936;5.334;2023-08-31T03:06:00;12.80;99.90
25024;DHT22;13033;50.936;5.334;2023-08-31T03:08:26;12.80;99.90
25024;DHT22;13033;50.936;5.334;2023-08-31T03:10:51;12.70;99.90
25024;DHT22;13033;50.936;5.334;2023-08-31T03:13:18;12.70;99.90
25024;DHT22;13033;50.936;5.334;2023-08-31T03:15:44;12.70;99.90
25024;DHT22;13033;50.936;5.334;2023-08-31T03:18:09;12.80;99.90
25024;DHT22;13033;50.936;5.334;2023-08-31T03:20:35;13.00;99.90
25024;DHT22;13033;50.936;5.334;2023-08-31T03:23:01;13.00;99.90
25024;DHT22;13033;50.936;5.334;2023-08-31T03:25:27;13.00;99.90
25024;DHT22;13033;50.936;5.334;2023-08-31T03:27:53;13.10;99.90
25024;DHT22;13033;50.936;5.334;2023-08-31T03:30:19;13.10;99.90
25024;DHT22;13033;50.936;5.334;2023-08-31T03:32:45;12.80;99.90
25024;DHT22;13033;50.936;5.334;2023-08-31T03:35:10;13.00;99.90
25024;DHT22;13033;50.936;5.334;2023-08-31T03:37:37;13.00;99.90
25024;DHT22;13033;50.936;5.334;2023-08-31T03:40:03;13.10;99.90
25024;DHT22;13033;50.936;5.334;2023-08-31T03:42:31;12.90;99.90
25024;DHT22;13033;50.936;5.334;2023-08-31T03:44:57;12.90;99.90
25024;DHT22;13033;50.936;5.334;2023-08-31T03:47:22;13.00;99.90
25024;DHT22;13033;50.936;5.334;2023-08-31T03:49:48;13.00;99.90
25024;DHT22;13033;50.936;5.334;2023-08-31T03:52:14;12.90;99.90
25024;DHT22;13033;50.936;5.334;2023-08-31T03:54:39;13.00;99.90
25024;DHT22;13033;50.936;5.334;2023-08-31T03:57:05;12.90;99.90
25024;DHT22;13033;50.936;5.334;2023-08-31T03:59:30;12.80;99.90
25024;DHT22;13033;50.936;5.334;2023-08-31T04:01:56;12.80;99.90
25024;DHT22;13033;50.936;5.334;2023-08-31T04:04:22;12.70;99.90
25024;DHT22;13033;50.936;5.334;2023-08-31T04:06:47;12.90;99.90
25024;DHT22;13033;50.936;5.334;2023-08-31T04:09:13;12.90;99.90
25024;DHT22;13033;50.936;5.334;2023-08-31T04:11:39;13.00;99.90
25024;DHT22;13033;50.936;5.334;2023-08-31T04:14:04;12.90;99.90
25024;DHT22;13033;50.936;5.334;2023-08-31T04:16:32;12.90;99.90
25024;DHT22;13033;50.936;5.334;2023-08-31T04:18:57;12.90;99.90
25024;DHT22;13033;50.936;5.334;2023-08-31T04:21:23;12.90;99.90
25024;DHT22;13033;50.936;5.334;2023-08-31T04:23:49;12.80;99.90
25024;DHT22;13033;50.936;5.334;2023-08-31T04:26:15;12.90;99.90
25024;DHT22;13033;50.936;5.334;2023-08-31T04:28:43;12.90;99.90
25024;DHT22;13033;50.936;5.334;2023-08-31T04:31:09;12.80;99.90
25024;DHT22;13033;50.936;5.334;2023-08-31T04:33:36;12.90;99.90
25024;DHT22;13033;50.936;5.334;2023-08-31T04:36:02;12.70;99.90
25024;DHT22;13033;50.936;5.334;2023-08-31T04:38:29;12.70;99.90
25024;DHT22;13033;50.936;5.334;2023-08-31T04:40:58;12.70;99.90
25024;DHT22;13033;50.936;5.334;2023-08-31T04:43:24;12.70;99.90
25024;DHT22;13033;50.936;5.334;2023-08-31T04:45:51;12.80;99.90
25024;DHT22;13033;50.936;5.334;2023-08-31T04:48:17;12.90;99.90
25024;DHT22;13033;50.936;5.334;2023-08-31T04:50:43;12.90;99.90
25024;DHT22;13033;50.936;5.334;2023-08-31T04:53:08;12.80;99.90
25024;DHT22;13033;50.936;5.334;2023-08-31T04:55:34;12.90;99.90
25024;DHT22;13033;50.936;5.334;2023-08-31T04:58:00;12.70;99.90
25024;DHT22;13033;50.936;5.334;2023-08-31T05:00:26;12.80;99.90
25024;DHT22;13033;50.936;5.334;2023-08-31T05:02:52;12.80;99.90
25024;DHT22;13033;50.936;5.334;2023-08-31T05:05:18;12.80;99.90
25024;DHT22;13033;50.936;5.334;2023-08-31T05:07:44;12.90;99.90
25024;DHT22;13033;50.936;5.334;2023-08-31T05:10:10;12.90;99.90
25024;DHT22;13033;50.936;5.334;2023-08-31T05:12:36;12.80;99.90
25024;DHT22;13033;50.936;5.334;2023-08-31T05:15:01;12.80;99.90
25024;DHT22;13033;50.936;5.334;2023-08-31T05:17:28;12.80;99.90
25024;DHT22;13033;50.936;5.334;2023-08-31T05:19:53;12.80;99.90
25024;DHT22;13033;50.936;5.334;2023-08-31T05:22:19;13.00;99.90
25024;DHT22;13033;50.936;5.334;2023-08-31T05:24:45;12.90;99.90
25024;DHT22;13033;50.936;5.334;2023-08-31T05:27:10;12.90;99.90
25024;DHT22;13033;50.936;5.334;2023-08-31T05:29:36;13.00;99.90
25024;DHT22;13033;50.936;5.334;2023-08-31T05:32:02;12.80;99.90
25024;DHT22;13033;50.936;5.334;2023-08-31T05:34:28;12.90;99.90
25024;DHT22;13033;50.936;5.334;2023-08-31T05:36:53;12.90;99.90
25024;DHT22;13033;50.936;5.334;2023-08-31T05:39:19;13.00;99.90
25024;DHT22;13033;50.936;5.334;2023-08-31T05:41:45;13.10;99.90
25024;DHT22;13033;50.936;5.334;2023-08-31T05:44:11;13.20;99.90
25024;DHT22;13033;50.936;5.334;2023-08-31T05:46:36;13.30;99.90
25024;DHT22;13033;50.936;5.334;2023-08-31T05:49:04;13.20;99.90
25024;DHT22;13033;50.936;5.334;2023-08-31T05:51:29;13.30;99.90
25024;DHT22;13033;50.936;5.334;2023-08-31T05:53:55;13.40;99.90
25024;DHT22;13033;50.936;5.334;2023-08-31T05:56:20;13.50;99.90
25024;DHT22;13033;50.936;5.334;2023-08-31T05:58:46;13.40;99.90
25024;DHT22;13033;50.936;5.334;2023-08-31T06:01:13;13.40;99.90
25024;DHT22;13033;50.936;5.334;2023-08-31T06:03:38;13.40;99.90
25024;DHT22;13033;50.936;5.334;2023-08-31T06:06:04;13.40;99.90
25024;DHT22;13033;50.936;5.334;2023-08-31T06:08:30;13.50;99.90
25024;DHT22;13033;50.936;5.334;2023-08-31T06:10:56;13.60;99.90
25024;DHT22;13033;50.936;5.334;2023-08-31T06:13:21;13.70;99.90
25024;DHT22;13033;50.936;5.334;2023-08-31T06:15:47;13.70;99.90
25024;DHT22;13033;50.936;5.334;2023-08-31T06:18:13;13.80;99.90
25024;DHT22;13033;50.936;5.334;2023-08-31T06:20:39;13.80;99.90
25024;DHT22;13033;50.936;5.334;2023-08-31T06:23:05;13.90;99.90
25024;DHT22;13033;50.936;5.334;2023-08-31T06:25:31;13.90;99.90
25024;DHT22;13033;50.936;5.334;2023-08-31T06:27:57;14.00;99.90
25024;DHT22;13033;50.936;5.334;2023-08-31T06:30:23;14.10;99.90
25024;DHT22;13033;50.936;5.334;2023-08-31T06:32:48;14.10;99.90
25024;DHT22;13033;50.936;5.334;2023-08-31T06:35:15;14.20;99.90
25024;DHT22;13033;50.936;5.334;2023-08-31T06:37:42;14.20;99.90
25024;DHT22;13033;50.936;5.334;2023-08-31T06:40:09;14.20;99.90
25024;DHT22;13033;50.936;5.334;2023-08-31T06:42:38;14.50;99.90
25024;DHT22;13033;50.936;5.334;2023-08-31T06:45:05;14.40;99.90
25024;DHT22;13033;50.936;5.334;2023-08-31T06:47:31;14.60;99.90
25024;DHT22;13033;50.936;5.334;2023-08-31T06:49:57;14.50;99.90
25024;DHT22;13033;50.936;5.334;2023-08-31T06:52:24;14.60;99.90
25024;DHT22;13033;50.936;5.334;2023-08-31T06:54:50;14.60;99.90
25024;DHT22;13033;50.936;5.334;2023-08-31T06:57:15;14.70;99.90
25024;DHT22;13033;50.936;5.334;2023-08-31T06:59:41;14.90;99.90
25024;DHT22;13033;50.936;5.334;2023-08-31T07:02:06;14.80;99.90
25024;DHT22;13033;50.936;5.334;2023-08-31T07:04:32;14.80;99.90
25024;DHT22;13033;50.936;5.334;2023-08-31T07:06:58;15.00;99.90
25024;DHT22;13033;50.936;5.334;2023-08-31T07:09:23;14.90;99.90
25024;DHT22;13033;50.936;5.334;2023-08-31T07:11:49;15.00;99.90
25024;DHT22;13033;50.936;5.334;2023-08-31T07:14:15;15.10;99.90
25024;DHT22;13033;50.936;5.334;2023-08-31T07:16:40;15.10;99.90
25024;DHT22;13033;50.936;5.334;2023-08-31T07:19:06;15.30;99.90
25024;DHT22;13033;50.936;5.334;2023-08-31T07:21:32;15.60;99.90
25024;DHT22;13033;50.936;5.334;2023-08-31T07:23:57;15.70;99.90
25024;DHT22;13033;50.936;5.334;2023-08-31T07:26:23;15.70;99.90
25024;DHT22;13033;50.936;5.334;2023-08-31T07:28:49;15.70;99.90
25024;DHT22;13033;50.936;5.334;2023-08-31T07:31:14;15.90;99.90
25024;DHT22;13033;50.936;5.334;2023-08-31T07:33:42;15.90;99.90
25024;DHT22;13033;50.936;5.334;2023-08-31T07:36:07;16.00;99.90
25024;DHT22;13033;50.936;5.334;2023-08-31T07:38:33;15.70;99.90
25024;DHT22;13033;50.936;5.334;2023-08-31T07:40:59;15.90;99.90
25024;DHT22;13033;50.936;5.334;2023-08-31T07:43:26;15.80;99.90
25024;DHT22;13033;50.936;5.334;2023-08-31T07:45:53;15.80;99.90
25024;DHT22;13033;50.936;5.334;2023-08-31T07:48:19;16.00;99.90
25024;DHT22;13033;50.936;5.334;2023-08-31T07:50:45;16.00;99.90
25024;DHT22;13033;50.936;5.334;2023-08-31T07:53:11;16.10;99.90
25024;DHT22;13033;50.936;5.334;2023-08-31T07:55:37;16.10;99.90
25024;DHT22;13033;50.936;5.334;2023-08-31T07:58:03;16.20;99.90
25024;DHT22;13033;50.936;5.334;2023-08-31T08:00:28;16.50;99.90
25024;DHT22;13033;50.936;5.334;2023-08-31T08:02:54;16.60;99.90
25024;DHT22;13033;50.936;5.334;2023-08-31T08:05:20;16.70;99.90
25024;DHT22;13033;50.936;5.334;2023-08-31T08:07:46;16.70;99.90
25024;DHT22;13033;50.936;5.334;2023-08-31T08:10:12;16.80;99.90
25024;DHT22;13033;50.936;5.334;2023-08-31T08:12:39;16.70;99.90
25024;DHT22;13033;50.936;5.334;2023-08-31T08:15:06;16.60;99.90
25024;DHT22;13033;50.936;5.334;2023-08-31T08:17:35;16.60;99.90
25024;DHT22;13033;50.936;5.334;2023-08-31T08:20:01;16.50;99.90
25024;DHT22;13033;50.936;5.334;2023-08-31T08:22:27;16.70;99.90
25024;DHT22;13033;50.936;5.334;2023-08-31T08:24:52;16.70;99.90
25024;DHT22;13033;50.936;5.334;2023-08-31T08:27:18;16.80;99.90
25024;DHT22;13033;50.936;5.334;2023-08-31T08:29:45;16.90;99.90
25024;DHT22;13033;50.936;5.334;2023-08-31T08:32:11;17.10;99.90
25024;DHT22;13033;50.936;5.334;2023-08-31T08:34:36;17.20;99.90
25024;DHT22;13033;50.936;5.334;2023-08-31T08:37:02;17.40;99.90
25024;DHT22;13033;50.936;5.334;2023-08-31T08:39:29;17.50;99.90
25024;DHT22;13033;50.936;5.334;2023-08-31T08:41:58;17.70;99.90
25024;DHT22;13033;50.936;5.334;2023-08-31T08:44:32;17.80;99.90
25024;DHT22;13033;50.936;5.334;2023-08-31T08:46:59;17.80;99.90
25024;DHT22;13033;50.936;5.334;2023-08-31T08:49:26;17.90;99.90
25024;DHT22;13033;50.936;5.334;2023-08-31T08:51:52;18.00;99.90
25024;DHT22;13033;50.936;5.334;2023-08-31T08:54:18;17.80;99.90
25024;DHT22;13033;50.936;5.334;2023-08-31T08:56:45;17.80;99.90
25024;DHT22;13033;50.936;5.334;2023-08-31T08:59:11;17.90;99.90
25024;DHT22;13033;50.936;5.334;2023-08-31T09:01:43;18.00;99.90
25024;DHT22;13033;50.936;5.334;2023-08-31T09:04:10;18.20;99.90
25024;DHT22;13033;50.936;5.334;2023-08-31T09:06:36;18.60;99.90
25024;DHT22;13033;50.936;5.334;2023-08-31T09:09:01;18.80;99.90
25024;DHT22;13033;50.936;5.334;2023-08-31T09:11:27;18.80;99.90
25024;DHT22;13033;50.936;5.334;2023-08-31T09:13:53;18.80;99.90
25024;DHT22;13033;50.936;5.334;2023-08-31T09:16:29;18.80;99.90
25024;DHT22;13033;50.936;5.334;2023-08-31T09:18:58;18.90;99.90
25024;DHT22;13033;50.936;5.334;2023-08-31T09:21:37;18.80;99.90
25024;DHT22;13033;50.936;5.334;2023-08-31T09:24:05;18.90;99.90
25024;DHT22;13033;50.936;5.334;2023-08-31T09:26:55;18.70;99.90
25024;DHT22;13033;50.936;5.334;2023-08-31T09:29:21;18.60;99.90
25024;DHT22;13033;50.936;5.334;2023-08-31T09:31:47;18.70;99.90
25024;DHT22;13033;50.936;5.334;2023-08-31T09:34:14;18.80;99.90
25024;DHT22;13033;50.936;5.334;2023-08-31T09:36:40;19.00;99.90
25024;DHT22;13033;50.936;5.334;2023-08-31T09:39:06;19.20;99.90
25024;DHT22;13033;50.936;5.334;2023-08-31T09:41:32;19.30;99.90
25024;DHT22;13033;50.936;5.334;2023-08-31T09:44:16;19.40;99.90
25024;DHT22;13033;50.936;5.334;2023-08-31T09:46:43;19.40;99.90
25024;DHT22;13033;50.936;5.334;2023-08-31T09:49:10;19.40;99.90
25024;DHT22;13033;50.936;5.334;2023-08-31T09:51:40;19.50;99.90
25024;DHT22;13033;50.936;5.334;2023-08-31T09:54:08;19.60;99.90
25024;DHT22;13033;50.936;5.334;2023-08-31T09:56:36;19.70;99.90
25024;DHT22;13033;50.936;5.334;2023-08-31T09:59:02;19.80;99.90
25024;DHT22;13033;50.936;5.334;2023-08-31T10:01:28;20.20;99.90
25024;DHT22;13033;50.936;5.334;2023-08-31T10:03:54;20.00;99.90
25024;DHT22;13033;50.936;5.334;2023-08-31T10:06:22;19.80;99.90
25024;DHT22;13033;50.936;5.334;2023-08-31T10:08:48;20.00;99.90
25024;DHT22;13033;50.936;5.334;2023-08-31T10:11:14;20.10;99.90
25024;DHT22;13033;50.936;5.334;2023-08-31T10:13:42;20.00;99.90
25024;DHT22;13033;50.936;5.334;2023-08-31T10:16:08;19.80;99.90
25024;DHT22;13033;50.936;5.334;2023-08-31T10:18:35;19.90;99.90
25024;DHT22;13033;50.936;5.334;2023-08-31T10:21:04;19.90;99.90
25024;DHT22;13033;50.936;5.334;2023-08-31T10:23:29;20.30;99.90
25024;DHT22;13033;50.936;5.334;2023-08-31T10:28:23;20.50;99.90
25024;DHT22;13033;50.936;5.334;2023-08-31T10:31:06;20.60;99.90
25024;DHT22;13033;50.936;5.334;2023-08-31T10:33:35;20.60;99.90
25024;DHT22;13033;50.936;5.334;2023-08-31T10:36:08;20.60;99.90
25024;DHT22;13033;50.936;5.334;2023-08-31T10:38:34;20.90;99.90
25024;DHT22;13033;50.936;5.334;2023-08-31T10:43:51;21.40;99.90
25024;DHT22;13033;50.936;5.334;2023-08-31T10:46:34;21.20;99.90
25024;DHT22;13033;50.936;5.334;2023-08-31T10:49:13;20.70;99.90
25024;DHT22;13033;50.936;5.334;2023-08-31T10:51:41;20.40;99.90
25024;DHT22;13033;50.936;5.334;2023-08-31T10:54:26;20.10;99.90
25024;DHT22;13033;50.936;5.334;2023-08-31T11:00:02;19.90;99.90
25024;DHT22;13033;50.936;5.334;2023-08-31T11:02:29;20.00;99.90
25024;DHT22;13033;50.936;5.334;2023-08-31T11:05:08;20.00;99.90
25024;DHT22;13033;50.936;5.334;2023-08-31T11:07:34;20.00;99.90
25024;DHT22;13033;50.936;5.334;2023-08-31T11:12:37;20.60;99.90
25024;DHT22;13033;50.936;5.334;2023-08-31T11:15:03;20.90;99.90
25024;DHT22;13033;50.936;5.334;2023-08-31T11:17:30;21.00;99.90
25024;DHT22;13033;50.936;5.334;2023-08-31T11:19:57;21.00;99.90
25024;DHT22;13033;50.936;5.334;2023-08-31T11:22:23;20.90;99.90
25024;DHT22;13033;50.936;5.334;2023-08-31T11:24:49;20.80;99.90
25024;DHT22;13033;50.936;5.334;2023-08-31T11:27:19;20.60;99.90
25024;DHT22;13033;50.936;5.334;2023-08-31T11:29:45;20.70;99.90
25024;DHT22;13033;50.936;5.334;2023-08-31T11:32:11;20.60;99.90
25024;DHT22;13033;50.936;5.334;2023-08-31T11:34:43;20.60;99.90
25024;DHT22;13033;50.936;5.334;2023-08-31T11:37:11;20.70;99.90
25024;DHT22;13033;50.936;5.334;2023-08-31T11:39:41;20.70;99.90
25024;DHT22;13033;50.936;5.334;2023-08-31T11:42:08;21.00;99.90
25024;DHT22;13033;50.936;5.334;2023-08-31T11:44:34;21.30;99.90
25024;DHT22;13033;50.936;5.334;2023-08-31T11:47:00;21.40;99.90
25024;DHT22;13033;50.936;5.334;2023-08-31T11:49:27;21.40;99.90
25024;DHT22;13033;50.936;5.334;2023-08-31T11:51:53;21.50;99.90
25024;DHT22;13033;50.936;5.334;2023-08-31T11:54:19;21.60;99.90
25024;DHT22;13033;50.936;5.334;2023-08-31T11:56:46;21.30;99.90
25024;DHT22;13033;50.936;5.334;2023-08-31T11:59:17;21.10;99.90
25024;DHT22;13033;50.936;5.334;2023-08-31T12:01:45;21.00;99.90
25024;DHT22;13033;50.936;5.334;2023-08-31T12:04:16;20.90;99.90
25024;DHT22;13033;50.936;5.334;2023-08-31T12:06:46;21.10;99.90
25024;DHT22;13033;50.936;5.334;2023-08-31T12:09:12;21.50;99.90
25024;DHT22;13033;50.936;5.334;2023-08-31T12:11:38;21.60;99.90
25024;DHT22;13033;50.936;5.334;2023-08-31T12:14:21;21.50;99.90
25024;DHT22;13033;50.936;5.334;2023-08-31T12:16:47;21.60;99.90
25024;DHT22;13033;50.936;5.334;2023-08-31T12:19:13;21.80;99.90
25024;DHT22;13033;50.936;5.334;2023-08-31T12:21:39;21.70;99.90
25024;DHT22;13033;50.936;5.334;2023-08-31T12:24:05;21.80;99.90
25024;DHT22;13033;50.936;5.334;2023-08-31T12:26:31;21.90;99.90
25024;DHT22;13033;50.936;5.334;2023-08-31T12:28:57;21.80;99.90
25024;DHT22;13033;50.936;5.334;2023-08-31T12:31:24;21.70;99.90
25024;DHT22;13033;50.936;5.334;2023-08-31T12:33:49;21.50;99.90
25024;DHT22;13033;50.936;5.334;2023-08-31T12:36:15;21.30;99.90
25024;DHT22;13033;50.936;5.334;2023-08-31T12:38:41;21.20;99.90
25024;DHT22;13033;50.936;5.334;2023-08-31T12:41:07;21.20;99.90
25024;DHT22;13033;50.936;5.334;2023-08-31T12:43:34;21.10;99.90
25024;DHT22;13033;50.936;5.334;2023-08-31T12:46:00;21.10;99.90
25024;DHT22;13033;50.936;5.334;2023-08-31T12:48:26;21.00;99.90
25024;DHT22;13033;50.936;5.334;2023-08-31T12:50:52;20.80;99.90
25024;DHT22;13033;50.936;5.334;2023-08-31T12:53:22;20.80;99.90
25024;DHT22;13033;50.936;5.334;2023-08-31T12:55:48;20.90;99.90
25024;DHT22;13033;50.936;5.334;2023-08-31T12:58:15;21.00;99.90
25024;DHT22;13033;50.936;5.334;2023-08-31T13:00:41;21.00;99.90
25024;DHT22;13033;50.936;5.334;2023-08-31T13:03:08;20.90;99.90
25024;DHT22;13033;50.936;5.334;2023-08-31T13:05:35;21.00;99.90
25024;DHT22;13033;50.936;5.334;2023-08-31T13:08:00;20.90;99.90
25024;DHT22;13033;50.936;5.334;2023-08-31T13:10:26;21.30;99.90
25024;DHT22;13033;50.936;5.334;2023-08-31T13:12:52;21.30;99.90
25024;DHT22;13033;50.936;5.334;2023-08-31T13:15:17;21.20;99.90
25024;DHT22;13033;50.936;5.334;2023-08-31T13:17:43;21.30;99.90
25024;DHT22;13033;50.936;5.334;2023-08-31T13:20:09;21.30;99.90
25024;DHT22;13033;50.936;5.334;2023-08-31T13:22:35;21.40;99.90
25024;DHT22;13033;50.936;5.334;2023-08-31T13:25:00;21.30;99.90
25024;DHT22;13033;50.936;5.334;2023-08-31T13:27:26;21.10;99.90
25024;DHT22;13033;50.936;5.334;2023-08-31T13:29:52;21.00;99.90
25024;DHT22;13033;50.936;5.334;2023-08-31T13:32:17;20.90;99.90
25024;DHT22;13033;50.936;5.334;2023-08-31T13:34:43;20.80;99.90
25024;DHT22;13033;50.936;5.334;2023-08-31T13:37:09;20.80;99.90
25024;DHT22;13033;50.936;5.334;2023-08-31T13:39:36;21.00;99.90
25024;DHT22;13033;50.936;5.334;2023-08-31T13:42:02;21.20;99.90
25024;DHT22;13033;50.936;5.334;2023-08-31T13:44:29;21.20;99.90
25024;DHT22;13033;50.936;5.334;2023-08-31T13:46:55;21.10;99.90
25024;DHT22;13033;50.936;5.334;2023-08-31T13:49:20;21.10;99.90
25024;DHT22;13033;50.936;5.334;2023-08-31T13:51:46;21.10;99.90
25024;DHT22;13033;50.936;5.334;2023-08-31T13:54:12;21.00;99.90
25024;DHT22;13033;50.936;5.334;2023-08-31T13:56:37;21.30;99.90
25024;DHT22;13033;50.936;5.334;2023-08-31T13:59:03;21.30;99.90
25024;DHT22;13033;50.936;5.334;2023-08-31T14:01:30;21.40;99.90
25024;DHT22;13033;50.936;5.334;2023-08-31T14:03:55;21.40;99.90
25024;DHT22;13033;50.936;5.334;2023-08-31T14:06:21;21.30;99.90
25024;DHT22;13033;50.936;5.334;2023-08-31T14:08:47;21.40;99.90
25024;DHT22;13033;50.936;5.334;2023-08-31T14:11:13;21.30;99.90
25024;DHT22;13033;50.936;5.334;2023-08-31T14:13:39;21.40;99.90
25024;DHT22;13033;50.936;5.334;2023-08-31T14:16:07;21.60;99.90
25024;DHT22;13033;50.936;5.334;2023-08-31T14:18:32;21.70;99.90
25024;DHT22;13033;50.936;5.334;2023-08-31T14:20:58;21.40;99.90
25024;DHT22;13033;50.936;5.334;2023-08-31T14:23:26;21.30;99.90
25024;DHT22;13033;50.936;5.334;2023-08-31T14:25:52;21.40;99.90
25024;DHT22;13033;50.936;5.334;2023-08-31T14:28:17;21.50;99.90
25024;DHT22;13033;50.936;5.334;2023-08-31T14:30:43;21.90;99.90
25024;DHT22;13033;50.936;5.334;2023-08-31T14:33:09;22.20;99.90
25024;DHT22;13033;50.936;5.334;2023-08-31T14:35:38;22.30;99.90
25024;DHT22;13033;50.936;5.334;2023-08-31T14:38:04;22.10;99.90
25024;DHT22;13033;50.936;5.334;2023-08-31T14:40:30;22.20;99.90
25024;DHT22;13033;50.936;5.334;2023-08-31T14:42:56;21.90;99.90
25024;DHT22;13033;50.936;5.334;2023-08-31T14:45:22;22.00;99.90
25024;DHT22;13033;50.936;5.334;2023-08-31T14:47:47;21.90;99.90
25024;DHT22;13033;50.936;5.334;2023-08-31T14:50:13;22.10;99.90
25024;DHT22;13033;50.936;5.334;2023-08-31T14:52:39;22.50;99.90
25024;DHT22;13033;50.936;5.334;2023-08-31T14:55:05;22.60;99.90
25024;DHT22;13033;50.936;5.334;2023-08-31T14:57:30;22.50;99.90
25024;DHT22;13033;50.936;5.334;2023-08-31T14:59:56;22.40;99.90
25024;DHT22;13033;50.936;5.334;2023-08-31T15:02:24;22.40;99.90
25024;DHT22;13033;50.936;5.334;2023-08-31T15:04:50;22.40;99.90
25024;DHT22;13033;50.936;5.334;2023-08-31T15:07:17;22.00;99.90
25024;DHT22;13033;50.936;5.334;2023-08-31T15:09:43;21.80;99.90
25024;DHT22;13033;50.936;5.334;2023-08-31T15:12:09;21.90;99.90
25024;DHT22;13033;50.936;5.334;2023-08-31T15:14:35;21.80;99.90
25024;DHT22;13033;50.936;5.334;2023-08-31T15:17:00;21.70;99.90
25024;DHT22;13033;50.936;5.334;2023-08-31T15:19:26;21.40;99.90
25024;DHT22;13033;50.936;5.334;2023-08-31T15:21:52;21.60;99.90
25024;DHT22;13033;50.936;5.334;2023-08-31T15:24:17;21.60;99.90
25024;DHT22;13033;50.936;5.334;2023-08-31T15:26:43;21.70;99.90
25024;DHT22;13033;50.936;5.334;2023-08-31T15:29:09;21.90;99.90
25024;DHT22;13033;50.936;5.334;2023-08-31T15:31:35;21.80;99.90
25024;DHT22;13033;50.936;5.334;2023-08-31T15:34:00;21.90;99.90
25024;DHT22;13033;50.936;5.334;2023-08-31T15:36:26;21.80;99.90
25024;DHT22;13033;50.936;5.334;2023-08-31T15:38:52;21.50;99.90
25024;DHT22;13033;50.936;5.334;2023-08-31T15:41:18;21.30;99.90
25024;DHT22;13033;50.936;5.334;2023-08-31T15:43:43;21.60;99.90
25024;DHT22;13033;50.936;5.334;2023-08-31T15:46:09;21.70;99.90